createdAt,value
2018-12-15T00:00:51.499Z,33.83
2018-12-15T00:03:18.886Z,31.77
2018-12-15T00:05:46.317Z,34.20
2018-12-15T00:08:13.711Z,35.47
2018-12-15T00:10:41.149Z,32.67
2018-12-15T00:13:08.562Z,30.57
2018-12-15T00:15:35.979Z,30.17
2018-12-15T00:18:03.530Z,30.13
2018-12-15T00:20:30.965Z,32.67
2018-12-15T00:22:58.359Z,31.40
2018-12-15T00:25:25.782Z,33.57
2018-12-15T00:27:53.173Z,34.50
2018-12-15T00:30:20.596Z,34.00
2018-12-15T00:32:47.978Z,32.47
2018-12-15T00:35:15.407Z,30.50
2018-12-15T00:37:42.939Z,31.27
2018-12-15T00:40:10.361Z,29.33
2018-12-15T00:42:37.740Z,31.67
2018-12-15T00:45:05.611Z,31.03
2018-12-15T00:47:33.026Z,30.63
2018-12-15T00:50:00.438Z,29.17
2018-12-15T00:52:27.864Z,26.80
2018-12-15T00:54:55.255Z,32.50
2018-12-15T00:57:22.661Z,30.67
2018-12-15T00:59:50.061Z,28.23
2018-12-15T01:02:17.486Z,30.07
2018-12-15T01:04:44.996Z,31.73
2018-12-15T01:07:12.425Z,29.63
2018-12-15T01:09:39.859Z,29.03
2018-12-15T01:12:07.256Z,26.47
2018-12-15T01:14:34.658Z,25.63
2018-12-15T01:17:02.169Z,26.30
2018-12-15T01:19:29.572Z,27.40
2018-12-15T01:21:56.946Z,31.77
2018-12-15T01:24:24.340Z,31.93
2018-12-15T01:26:51.759Z,29.33
2018-12-15T01:29:25.784Z,30.53
2018-12-15T01:31:53.418Z,31.17
2018-12-15T01:34:20.851Z,30.07
2018-12-15T01:36:48.256Z,30.37
2018-12-15T01:39:15.762Z,28.50
2018-12-15T01:41:50.025Z,29.20
2018-12-15T01:44:17.457Z,25.83
2018-12-15T01:46:44.840Z,29.00
2018-12-15T01:49:12.265Z,26.53
2018-12-15T01:51:39.652Z,27.27
2018-12-15T01:54:07.060Z,30.30
2018-12-15T01:56:34.484Z,28.27
2018-12-15T01:59:01.871Z,27.27
2018-12-15T02:01:29.329Z,27.37
2018-12-15T02:03:56.715Z,28.10
2018-12-15T02:06:24.141Z,30.90
2018-12-15T02:08:51.546Z,29.27
2018-12-15T02:11:18.968Z,27.00
2018-12-15T02:13:46.491Z,27.03
2018-12-15T02:16:13.909Z,30.27
2018-12-15T02:18:41.300Z,27.40
2018-12-15T02:21:08.721Z,30.07
2018-12-15T02:23:36.132Z,27.90
2018-12-15T02:26:03.572Z,28.50
2018-12-15T02:28:31.014Z,27.93
2018-12-15T02:30:58.451Z,26.93
2018-12-15T02:33:25.837Z,28.47
2018-12-15T02:35:53.259Z,29.10
2018-12-15T02:38:20.825Z,25.67
2018-12-15T02:40:48.245Z,25.17
2018-12-15T02:43:15.903Z,27.10
2018-12-15T02:45:43.362Z,26.70
2018-12-15T02:48:10.756Z,28.50
2018-12-15T02:50:38.190Z,26.23
2018-12-15T02:53:12.541Z,26.30
2018-12-15T02:55:39.985Z,26.60
2018-12-15T02:58:07.403Z,28.77
2018-12-15T03:00:34.853Z,26.60
2018-12-15T03:03:02.260Z,24.13
2018-12-15T03:05:29.690Z,25.30
2018-12-15T03:07:57.098Z,26.70
2018-12-15T03:10:24.524Z,27.67
2018-12-15T03:12:51.907Z,27.77
2018-12-15T03:15:19.328Z,29.73
2018-12-15T03:17:48.995Z,27.37
2018-12-15T03:20:16.289Z,27.90
2018-12-15T03:22:43.712Z,25.93
2018-12-15T03:25:11.148Z,28.40
2018-12-15T03:27:38.544Z,25.23
2018-12-15T03:30:06.197Z,25.33
2018-12-15T03:32:33.592Z,26.80
2018-12-15T03:35:01.017Z,25.00
2018-12-15T03:37:28.529Z,26.37
2018-12-15T03:39:55.936Z,28.93
2018-12-15T03:42:23.497Z,24.53
2018-12-15T03:44:51.159Z,27.43
2018-12-15T03:47:18.593Z,29.60
2018-12-15T03:49:45.988Z,27.43
2018-12-15T03:52:13.443Z,25.03
2018-12-15T03:54:40.937Z,26.60
2018-12-15T03:57:08.352Z,25.33
2018-12-15T03:59:35.882Z,23.67
2018-12-15T04:02:03.355Z,21.40
2018-12-15T04:04:31.584Z,24.67
2018-12-15T04:06:59.144Z,24.93
2018-12-15T04:09:26.546Z,25.23
2018-12-15T04:11:53.953Z,26.07
2018-12-15T04:14:21.381Z,25.93
2018-12-15T04:16:48.822Z,25.70
2018-12-15T04:19:16.221Z,26.43
2018-12-15T04:21:43.629Z,23.77
2018-12-15T04:24:11.025Z,28.00
2018-12-15T04:26:38.443Z,25.60
2018-12-15T04:29:10.200Z,29.00
2018-12-15T04:31:37.640Z,30.50
2018-12-15T04:34:05.032Z,23.70
2018-12-15T04:36:32.474Z,21.57
2018-12-15T04:38:59.873Z,22.80
2018-12-15T04:41:27.296Z,24.30
2018-12-15T04:43:55.188Z,23.27
2018-12-15T04:46:22.604Z,24.17
2018-12-15T04:48:49.997Z,23.47
2018-12-15T04:51:17.470Z,21.13
2018-12-15T04:53:44.863Z,24.90
2018-12-15T04:56:12.328Z,21.33
2018-12-15T04:58:39.736Z,20.83
2018-12-15T05:01:07.144Z,22.67
2018-12-15T05:03:34.909Z,26.10
2018-12-15T05:06:02.295Z,26.90
2018-12-15T05:08:29.721Z,23.90
2018-12-15T05:10:57.124Z,21.70
2018-12-15T05:13:24.645Z,23.10
2018-12-15T05:15:52.048Z,21.93
2018-12-15T05:18:19.464Z,24.07
2018-12-15T05:20:46.866Z,21.83
2018-12-15T05:23:14.275Z,21.30
2018-12-15T05:25:41.663Z,21.20
2018-12-15T05:28:09.080Z,20.33
2018-12-15T05:30:36.817Z,17.97
2018-12-15T05:33:04.396Z,20.70
2018-12-15T05:35:31.794Z,20.80
2018-12-15T05:37:59.208Z,20.03
2018-12-15T05:40:26.595Z,19.70
2018-12-15T05:42:54.008Z,17.30
2018-12-15T05:45:21.408Z,20.20
2018-12-15T05:47:48.884Z,18.80
2018-12-15T05:50:16.289Z,22.77
2018-12-15T05:52:43.695Z,23.17
2018-12-15T05:55:11.100Z,18.37
2018-12-15T05:57:38.645Z,21.30
2018-12-15T06:00:06.704Z,21.10
2018-12-15T06:02:34.440Z,20.47
2018-12-15T06:05:02.395Z,20.23
2018-12-15T06:07:29.811Z,20.23
2018-12-15T06:09:57.241Z,21.43
2018-12-15T06:12:24.679Z,19.30
2018-12-15T06:14:52.077Z,20.80
2018-12-15T06:17:19.508Z,21.20
2018-12-15T06:19:46.903Z,21.40
2018-12-15T06:22:14.323Z,23.50
2018-12-15T06:24:41.716Z,19.97
2018-12-15T06:27:09.172Z,21.73
2018-12-15T06:29:36.562Z,23.63
2018-12-15T06:32:04.028Z,21.20
2018-12-15T06:34:38.123Z,21.30
2018-12-15T06:37:05.540Z,21.93
2018-12-15T06:39:32.928Z,19.87
2018-12-15T06:42:00.377Z,18.80
2018-12-15T06:44:27.776Z,19.23
2018-12-15T06:46:55.175Z,20.80
2018-12-15T06:49:23.425Z,17.43
2018-12-15T06:51:50.812Z,18.27
2018-12-15T06:54:18.215Z,21.30
2018-12-15T06:56:45.603Z,17.40
2018-12-15T06:59:13.032Z,17.87
2018-12-15T07:01:40.415Z,18.47
2018-12-15T07:04:07.844Z,18.93
2018-12-15T07:06:35.233Z,21.93
2018-12-15T07:09:03.503Z,22.33
2018-12-15T07:11:30.927Z,19.00
2018-12-15T07:13:58.387Z,19.30
2018-12-15T07:16:25.777Z,21.17
2018-12-15T07:18:53.191Z,19.43
2018-12-15T07:21:20.586Z,20.10
2018-12-15T07:23:48.007Z,19.87
2018-12-15T07:26:15.383Z,18.87
2018-12-15T07:28:42.792Z,18.27
2018-12-15T07:31:10.203Z,16.53
2018-12-15T07:33:37.604Z,17.23
2018-12-15T07:36:05.008Z,20.43
2018-12-15T07:38:32.416Z,20.53
2018-12-15T07:40:59.834Z,18.20
2018-12-15T07:43:27.258Z,19.60
2018-12-15T07:45:54.648Z,20.30
2018-12-15T07:48:22.193Z,20.17
2018-12-15T07:50:49.574Z,19.13
2018-12-15T07:53:17.021Z,24.37
2018-12-15T07:55:51.080Z,19.57
2018-12-15T07:58:18.505Z,21.00
2018-12-15T08:00:45.892Z,20.10
2018-12-15T08:03:13.316Z,19.20
2018-12-15T08:05:40.704Z,21.20
2018-12-15T08:08:08.148Z,19.63
2018-12-15T08:11:41.413Z,19.13
2018-12-15T08:14:09.793Z,20.53
2018-12-15T08:16:37.412Z,21.00
2018-12-15T08:19:05.934Z,18.63
2018-12-15T08:21:33.702Z,17.87
2018-12-15T08:24:01.133Z,17.90
2018-12-15T08:26:28.692Z,20.80
2018-12-15T08:28:56.117Z,20.63
2018-12-15T08:31:23.593Z,18.23
2018-12-15T08:33:51.000Z,18.73
2018-12-15T08:36:18.471Z,18.07
2018-12-15T08:38:45.915Z,22.50
2018-12-15T08:41:13.383Z,20.97
2018-12-15T08:43:40.966Z,22.57
2018-12-15T08:46:11.180Z,21.60
2018-12-15T08:48:38.612Z,23.77
2018-12-15T08:51:06.258Z,22.83
2018-12-15T08:53:33.747Z,22.83
2018-12-15T08:56:01.170Z,24.57
2018-12-15T08:58:28.629Z,28.33
2018-12-15T09:00:56.012Z,28.63
2018-12-15T09:03:23.456Z,29.20
2018-12-15T09:05:50.860Z,29.27
2018-12-15T09:08:18.276Z,25.57
2018-12-15T09:10:45.699Z,23.73
2018-12-15T09:13:13.126Z,21.87
2018-12-15T09:15:40.525Z,21.13
2018-12-15T09:18:07.949Z,19.93
2018-12-15T09:20:35.464Z,23.73
2018-12-15T09:23:02.912Z,19.63
2018-12-15T09:25:30.304Z,20.87
2018-12-15T09:27:57.824Z,21.07
2018-12-15T09:30:25.381Z,22.03
2018-12-15T09:32:52.759Z,22.87
2018-12-15T09:35:20.183Z,20.77
2018-12-15T09:37:47.567Z,23.63
2018-12-15T09:40:15.005Z,20.30
2018-12-15T09:42:42.390Z,21.37
2018-12-15T09:45:09.929Z,21.83
2018-12-15T09:47:37.341Z,21.33
2018-12-15T09:50:04.944Z,24.07
2018-12-15T09:52:32.478Z,21.10
2018-12-15T09:54:59.929Z,21.67
2018-12-15T09:57:27.384Z,22.73
2018-12-15T09:59:54.800Z,23.83
2018-12-15T10:02:22.201Z,25.17
2018-12-15T10:04:49.645Z,23.50
2018-12-15T10:07:17.085Z,21.47
2018-12-15T10:09:44.531Z,24.07
2018-12-15T10:12:11.936Z,20.80
2018-12-15T10:14:39.848Z,23.93
2018-12-15T10:17:07.256Z,22.87
2018-12-15T10:19:34.685Z,22.70
2018-12-15T10:22:02.088Z,22.50
2018-12-15T10:24:29.516Z,20.33
2018-12-15T10:26:56.928Z,23.07
2018-12-15T10:29:30.180Z,23.73
2018-12-15T10:32:03.366Z,21.73
2018-12-15T10:34:30.809Z,23.00
2018-12-15T10:36:58.240Z,24.70
2018-12-15T10:39:25.675Z,23.97
2018-12-15T10:41:53.117Z,23.80
2018-12-15T10:44:20.562Z,28.67
2018-12-15T10:46:47.999Z,25.20
2018-12-15T10:49:15.656Z,25.67
2018-12-15T10:51:43.052Z,25.33
2018-12-15T10:54:10.494Z,25.20
2018-12-15T10:56:37.891Z,24.13
2018-12-15T10:59:05.359Z,24.63
2018-12-15T11:01:32.832Z,24.00
2018-12-15T11:04:00.868Z,30.73
2018-12-15T11:06:28.476Z,31.17
2018-12-15T11:08:55.947Z,31.73
2018-12-15T11:11:23.344Z,34.53
2018-12-15T11:13:50.791Z,25.17
2018-12-15T11:16:18.203Z,26.70
2018-12-15T11:18:45.616Z,23.03
2018-12-15T11:21:13.047Z,24.03
2018-12-15T11:23:40.449Z,25.47
2018-12-15T11:26:07.911Z,28.47
2018-12-15T11:28:35.315Z,27.40
2018-12-15T11:31:02.797Z,23.80
2018-12-15T11:33:30.201Z,25.53
2018-12-15T11:35:57.603Z,25.87
2018-12-15T11:38:25.027Z,22.40
2018-12-15T11:40:52.447Z,26.77
2018-12-15T11:43:19.861Z,26.23
2018-12-15T11:45:47.314Z,26.87
2018-12-15T11:48:14.975Z,27.37
2018-12-15T11:50:42.390Z,28.47
2018-12-15T11:53:09.788Z,26.30
2018-12-15T11:55:37.268Z,27.37
2018-12-15T11:58:04.667Z,28.60
2018-12-15T12:00:32.228Z,27.53
2018-12-15T12:02:59.632Z,30.13
2018-12-15T12:05:27.078Z,27.43
2018-12-15T12:07:54.486Z,30.07
2018-12-15T12:10:23.104Z,27.53
2018-12-15T12:12:50.534Z,30.37
2018-12-15T12:15:17.983Z,28.60
2018-12-15T12:17:45.456Z,29.43
2018-12-15T12:20:12.949Z,27.37
2018-12-15T12:22:40.364Z,30.97
2018-12-15T12:25:07.943Z,28.90
2018-12-15T12:27:35.347Z,29.93
2018-12-15T12:30:03.048Z,33.00
2018-12-15T12:32:30.460Z,31.63
2018-12-15T12:34:57.902Z,32.40
2018-12-15T12:37:25.325Z,32.83
2018-12-15T12:39:52.788Z,34.00
2018-12-15T12:42:20.183Z,32.33
2018-12-15T12:44:47.619Z,35.83
2018-12-15T12:47:15.099Z,34.43
2018-12-15T12:49:42.533Z,32.40
2018-12-15T12:52:09.939Z,33.47
2018-12-15T12:54:37.367Z,31.93
2018-12-15T12:57:06.731Z,37.93
2018-12-15T12:59:34.541Z,39.60
2018-12-15T13:02:02.294Z,80.47
2018-12-15T13:04:29.738Z,54.17
2018-12-15T13:06:57.128Z,33.90
2018-12-15T13:09:24.572Z,35.07
2018-12-15T13:11:51.955Z,33.43
2018-12-15T13:14:19.390Z,34.53
2018-12-15T13:16:46.948Z,33.13
2018-12-15T13:19:14.527Z,34.70
2018-12-15T13:21:41.924Z,32.70
2018-12-15T13:24:09.412Z,33.63
2018-12-15T13:26:36.847Z,38.90
2018-12-15T13:29:04.416Z,34.93
2018-12-15T13:31:31.847Z,35.07
2018-12-15T13:33:59.243Z,35.67
2018-12-15T13:36:26.808Z,34.83
2018-12-15T13:38:54.327Z,32.87
2018-12-15T13:41:21.790Z,33.17
2018-12-15T13:43:49.176Z,29.17
2018-12-15T13:46:16.735Z,32.40
2018-12-15T13:48:44.148Z,32.00
2018-12-15T13:51:11.613Z,35.40
2018-12-15T13:53:39.116Z,34.83
2018-12-15T13:56:06.672Z,36.03
2018-12-15T13:58:34.086Z,37.90
2018-12-15T14:01:01.541Z,37.00
2018-12-15T14:03:28.945Z,37.90
2018-12-15T14:05:56.420Z,35.90
2018-12-15T14:08:23.929Z,35.17
2018-12-15T14:10:51.495Z,35.57
2018-12-15T14:13:18.900Z,35.57
2018-12-15T14:15:46.382Z,39.10
2018-12-15T14:18:13.862Z,33.80
2018-12-15T14:20:41.337Z,33.87
2018-12-15T14:23:08.735Z,37.43
2018-12-15T14:25:36.212Z,34.97
2018-12-15T14:28:03.637Z,33.57
2018-12-15T14:30:31.093Z,35.63
2018-12-15T14:32:58.482Z,37.00
2018-12-15T14:35:25.904Z,42.00
2018-12-15T14:37:53.293Z,38.90
2018-12-15T14:40:20.756Z,35.80
2018-12-15T14:42:48.163Z,35.27
2018-12-15T14:45:15.607Z,45.10
2018-12-15T14:47:43.053Z,33.07
2018-12-15T14:50:10.638Z,43.93
2018-12-15T14:52:38.060Z,45.67
2018-12-15T14:55:05.740Z,36.00
2018-12-15T14:57:33.163Z,36.40
2018-12-15T15:00:00.614Z,34.30
2018-12-15T15:02:28.112Z,35.03
2018-12-15T15:04:55.519Z,32.90
2018-12-15T15:07:22.993Z,33.67
2018-12-15T15:09:50.542Z,34.20
2018-12-15T15:12:18.024Z,32.77
2018-12-15T15:14:45.416Z,34.80
2018-12-15T15:17:12.879Z,30.87
2018-12-15T15:19:40.279Z,34.67
2018-12-15T15:22:07.857Z,30.20
2018-12-15T15:24:35.251Z,31.93
2018-12-15T15:27:02.696Z,32.93
2018-12-15T15:29:30.095Z,36.00
2018-12-15T15:31:57.558Z,31.87
2018-12-15T15:34:25.026Z,33.87
2018-12-15T15:36:52.528Z,33.60
2018-12-15T15:39:20.057Z,39.20
2018-12-15T15:41:47.606Z,35.50
2018-12-15T15:44:15.050Z,33.40
2018-12-15T15:46:42.503Z,36.07
2018-12-15T15:49:09.912Z,30.97
2018-12-15T15:51:37.597Z,33.83
2018-12-15T15:54:05.025Z,34.03
2018-12-15T15:56:32.493Z,35.37
2018-12-15T15:58:59.896Z,34.03
2018-12-15T16:01:27.364Z,34.30
2018-12-15T16:03:54.814Z,35.30
2018-12-15T16:06:22.271Z,31.40
2018-12-15T16:08:49.717Z,35.30
2018-12-15T16:11:17.152Z,33.77
2018-12-15T16:13:44.665Z,39.97
2018-12-15T16:16:44.357Z,33.23
2018-12-15T16:19:11.748Z,36.87
2018-12-15T16:21:39.213Z,36.97
2018-12-15T16:24:06.623Z,37.83
2018-12-15T16:26:34.072Z,34.33
2018-12-15T16:29:01.458Z,34.70
2018-12-15T16:31:28.930Z,33.53
2018-12-15T16:33:56.341Z,36.13
2018-12-15T16:36:23.811Z,34.60
2018-12-15T16:38:51.216Z,36.40
2018-12-15T16:41:18.662Z,35.93
2018-12-15T16:43:46.179Z,33.40
2018-12-15T16:46:13.642Z,33.13
2018-12-15T16:48:41.045Z,32.53
2018-12-15T16:51:08.617Z,33.30
2018-12-15T16:53:36.036Z,33.03
2018-12-15T16:56:03.513Z,33.97
2018-12-15T16:58:30.924Z,32.10
2018-12-15T17:00:58.384Z,34.17
2018-12-15T17:03:30.480Z,36.33
2018-12-15T17:05:55.284Z,36.87
2018-12-15T17:08:22.943Z,35.77
2018-12-15T17:10:50.636Z,35.33
2018-12-15T17:13:19.653Z,34.67
2018-12-15T17:15:47.423Z,36.50
2018-12-15T17:18:14.833Z,36.43
2018-12-15T17:20:42.269Z,36.27
2018-12-15T17:23:09.726Z,34.73
2018-12-15T17:25:37.156Z,35.97
2018-12-15T17:28:04.644Z,36.10
2018-12-15T17:30:32.036Z,41.50
2018-12-15T17:32:59.476Z,37.43
2018-12-15T17:35:26.904Z,38.37
2018-12-15T17:37:54.373Z,35.07
2018-12-15T17:40:21.783Z,32.47
2018-12-15T17:42:49.215Z,34.23
2018-12-15T17:45:16.640Z,34.93
2018-12-15T17:47:44.107Z,35.73
2018-12-15T17:50:11.775Z,36.13
2018-12-15T17:52:39.268Z,35.13
2018-12-15T17:55:07.184Z,32.57
2018-12-15T17:57:35.961Z,34.10
2018-12-15T18:00:05.753Z,32.60
2018-12-15T18:02:33.213Z,42.90
2018-12-15T18:05:00.594Z,36.60
2018-12-15T18:07:28.053Z,33.40
2018-12-15T18:09:55.485Z,33.53
2018-12-15T18:12:22.943Z,37.17
2018-12-15T18:14:50.344Z,35.33
2018-12-15T18:17:17.784Z,31.50
2018-12-15T18:19:45.187Z,34.70
2018-12-15T18:22:12.634Z,37.23
2018-12-15T18:24:40.028Z,34.53
2018-12-15T18:27:07.476Z,35.73
2018-12-15T18:29:34.920Z,35.80
2018-12-15T18:32:02.381Z,34.60
2018-12-15T18:34:29.783Z,32.80
2018-12-15T18:36:57.584Z,36.00
2018-12-15T18:39:25.012Z,34.97
2018-12-15T18:41:52.530Z,31.97
2018-12-15T18:44:20.012Z,34.90
2018-12-15T18:46:47.487Z,36.60
2018-12-15T18:49:14.892Z,32.43
2018-12-15T18:51:42.482Z,35.03
2018-12-15T18:54:09.925Z,32.73
2018-12-15T18:56:37.496Z,36.93
2018-12-15T18:59:05.038Z,38.80
2018-12-15T19:01:32.495Z,39.07
2018-12-15T19:03:59.895Z,38.33
2018-12-15T19:06:27.352Z,37.53
2018-12-15T19:08:54.785Z,37.67
2018-12-15T19:11:22.258Z,34.90
2018-12-15T19:13:49.678Z,36.10
2018-12-15T19:16:17.154Z,37.23
2018-12-15T19:18:44.692Z,36.03
2018-12-15T19:21:12.114Z,32.97
2018-12-15T19:23:39.576Z,34.70
2018-12-15T19:26:07.036Z,37.77
2018-12-15T19:28:34.544Z,38.53
2018-12-15T19:31:01.943Z,39.23
2018-12-15T19:33:29.407Z,35.10
2018-12-15T19:35:56.884Z,39.17
2018-12-15T19:38:24.374Z,37.80
2018-12-15T19:40:51.785Z,34.90
2018-12-15T19:43:19.256Z,42.70
2018-12-15T19:45:46.663Z,42.37
2018-12-15T19:48:14.253Z,43.27
2018-12-15T19:50:41.689Z,41.27
2018-12-15T19:53:15.816Z,40.97
2018-12-15T19:55:43.257Z,41.13
2018-12-15T19:58:10.737Z,40.50
2018-12-15T20:00:38.146Z,40.37
2018-12-15T20:03:05.599Z,44.80
2018-12-15T20:05:33.000Z,43.00
2018-12-15T20:08:00.468Z,41.70
2018-12-15T20:10:27.871Z,41.00
2018-12-15T20:12:55.311Z,36.30
2018-12-15T20:15:22.713Z,40.70
2018-12-15T20:17:50.193Z,41.70
2018-12-15T20:20:17.835Z,40.03
2018-12-15T20:22:45.316Z,41.63
2018-12-15T20:25:12.762Z,42.20
2018-12-15T20:27:40.224Z,41.60
2018-12-15T20:30:08.245Z,43.10
2018-12-15T20:32:35.695Z,40.83
2018-12-15T20:35:03.253Z,39.57
2018-12-15T20:37:30.741Z,38.37
2018-12-15T20:39:58.176Z,42.17
2018-12-15T20:42:25.635Z,41.17
2018-12-15T20:44:53.064Z,37.20
2018-12-15T20:47:20.564Z,41.33
2018-12-15T20:49:48.078Z,42.20
2018-12-15T20:52:15.511Z,38.03
2018-12-15T20:54:42.903Z,41.40
2018-12-15T20:57:10.363Z,39.30
2018-12-15T20:59:37.787Z,38.50
2018-12-15T21:02:05.383Z,41.83
2018-12-15T21:04:32.776Z,46.40
2018-12-15T21:07:00.228Z,42.33
2018-12-15T21:09:27.625Z,41.87
2018-12-15T21:11:55.172Z,41.70
2018-12-15T21:14:22.564Z,40.10
2018-12-15T21:16:50.000Z,51.23
2018-12-15T21:19:17.451Z,40.10
2018-12-15T21:21:49.508Z,39.30
2018-12-15T21:24:14.792Z,37.60
2018-12-15T21:26:42.203Z,39.00
2018-12-15T21:29:09.790Z,36.33
2018-12-15T21:31:39.552Z,38.37
2018-12-15T21:34:08.073Z,42.57
2018-12-15T21:36:36.407Z,40.17
2018-12-15T21:39:05.951Z,43.33
2018-12-15T21:41:33.336Z,41.63
2018-12-15T21:44:00.854Z,40.30
2018-12-15T21:46:28.297Z,37.90
2018-12-15T21:48:56.034Z,39.83
2018-12-15T21:51:23.461Z,38.53
2018-12-15T21:53:50.928Z,40.03
2018-12-15T21:56:18.328Z,36.73
2018-12-15T21:58:45.855Z,38.67
2018-12-15T22:01:13.267Z,35.97
2018-12-15T22:03:40.736Z,43.00
2018-12-15T22:06:08.134Z,38.53
2018-12-15T22:08:35.586Z,40.53
2018-12-15T22:11:03.115Z,36.40
2018-12-15T22:13:30.524Z,37.90
2018-12-15T22:15:57.932Z,35.67
2018-12-15T22:18:25.356Z,36.20
2018-12-15T22:20:53.088Z,38.80
2018-12-15T22:23:20.499Z,35.93
2018-12-15T22:25:47.909Z,38.43
2018-12-15T22:28:15.337Z,36.60
2018-12-15T22:30:42.727Z,38.83
2018-12-15T22:33:10.178Z,34.93
2018-12-15T22:35:37.609Z,42.20
2018-12-15T22:38:05.056Z,36.80
2018-12-15T22:40:32.440Z,35.97
2018-12-15T22:42:59.854Z,45.17
2018-12-15T22:45:27.268Z,39.63
2018-12-15T22:47:54.716Z,35.10
2018-12-15T22:50:22.301Z,35.90
2018-12-15T22:52:49.724Z,35.43
2018-12-15T22:55:17.126Z,34.83
2018-12-15T22:57:45.017Z,36.43
2018-12-15T23:00:12.560Z,36.23
2018-12-15T23:02:40.224Z,35.40
2018-12-15T23:05:07.800Z,34.43
2018-12-15T23:07:35.213Z,33.33
2018-12-15T23:10:02.919Z,32.57
2018-12-15T23:12:30.361Z,36.13
2018-12-15T23:14:57.739Z,33.73
2018-12-15T23:17:25.151Z,36.20
2018-12-15T23:19:52.548Z,37.37
2018-12-15T23:22:20.920Z,34.47
2018-12-15T23:24:48.331Z,38.10
2018-12-15T23:27:15.720Z,32.40
2018-12-15T23:29:43.132Z,34.60
2018-12-15T23:32:10.528Z,32.07
2018-12-15T23:34:37.956Z,40.10
2018-12-15T23:37:05.371Z,35.83
2018-12-15T23:39:33.643Z,37.87
2018-12-15T23:42:01.089Z,38.17
2018-12-15T23:44:29.416Z,37.10
2018-12-15T23:46:56.880Z,39.53
2018-12-15T23:49:24.342Z,36.23
2018-12-15T23:51:51.703Z,36.77
2018-12-15T23:54:19.119Z,34.83
2018-12-15T23:56:46.517Z,33.67
2018-12-15T23:59:13.928Z,33.20
